sensor_id;sensor_type;location;lat;lon;timestamp;pressure;altitude;pressure_sealevel;temperature
19102;BMP280;9683;49.028;12.064;2023-11-21T00:01:06;96643.69;;;10.81
19102;BMP280;9683;49.028;12.064;2023-11-21T00:03:34;96657.03;;;10.86
19102;BMP280;9683;49.028;12.064;2023-11-21T00:06:02;96642.28;;;10.79
19102;BMP280;9683;49.028;12.064;2023-11-21T00:08:30;96650.13;;;10.85
19102;BMP280;9683;49.028;12.064;2023-11-21T00:10:56;96651.72;;;10.86
19102;BMP280;9683;49.028;12.064;2023-11-21T00:13:25;96646.41;;;10.86
19102;BMP280;9683;49.028;12.064;2023-11-21T00:15:52;96646.19;;;10.88
19102;BMP280;9683;49.028;12.064;2023-11-21T00:18:18;96654.38;;;10.86
19102;BMP280;9683;49.028;12.064;2023-11-21T00:20:45;96659.25;;;10.89
19102;BMP280;9683;49.028;12.064;2023-11-21T00:23:13;96661.44;;;10.92
19102;BMP280;9683;49.028;12.064;2023-11-21T00:25:39;96652.84;;;10.90
19102;BMP280;9683;49.028;12.064;2023-11-21T00:28:07;96657.97;;;10.92
19102;BMP280;9683;49.028;12.064;2023-11-21T00:30:33;96659.81;;;10.91
19102;BMP280;9683;49.028;12.064;2023-11-21T00:33:00;96664.63;;;10.94
19102;BMP280;9683;49.028;12.064;2023-11-21T00:35:26;96650.69;;;10.87
19102;BMP280;9683;49.028;12.064;2023-11-21T00:37:52;96661.97;;;10.94
19102;BMP280;9683;49.028;12.064;2023-11-21T00:40:20;96662.78;;;10.95
19102;BMP280;9683;49.028;12.064;2023-11-21T00:42:47;96659.56;;;10.93
19102;BMP280;9683;49.028;12.064;2023-11-21T00:45:14;96657.72;;;10.93
19102;BMP280;9683;49.028;12.064;2023-11-21T00:47:41;96657.97;;;10.92
19102;BMP280;9683;49.028;12.064;2023-11-21T00:50:08;96654.25;;;10.93
19102;BMP280;9683;49.028;12.064;2023-11-21T00:52:35;96658.19;;;10.90
19102;BMP280;9683;49.028;12.064;2023-11-21T00:55:02;96658.34;;;10.84
19102;BMP280;9683;49.028;12.064;2023-11-21T00:57:29;96662.47;;;10.91
19102;BMP280;9683;49.028;12.064;2023-11-21T00:59:56;96665.94;;;10.92
19102;BMP280;9683;49.028;12.064;2023-11-21T01:02:22;96669.41;;;10.92
19102;BMP280;9683;49.028;12.064;2023-11-21T01:04:49;96678.22;;;10.93
19102;BMP280;9683;49.028;12.064;2023-11-21T01:07:15;96671.50;;;10.90
19102;BMP280;9683;49.028;12.064;2023-11-21T01:09:42;96676.09;;;10.95
19102;BMP280;9683;49.028;12.064;2023-11-21T01:12:09;96672.97;;;10.98
19102;BMP280;9683;49.028;12.064;2023-11-21T01:14:38;96675.88;;;10.96
19102;BMP280;9683;49.028;12.064;2023-11-21T01:17:04;96672.56;;;10.89
19102;BMP280;9683;49.028;12.064;2023-11-21T01:19:31;96674.81;;;10.81
19102;BMP280;9683;49.028;12.064;2023-11-21T01:21:57;96676.31;;;10.77
19102;BMP280;9683;49.028;12.064;2023-11-21T01:24:24;96676.53;;;10.75
19102;BMP280;9683;49.028;12.064;2023-11-21T01:26:51;96664.28;;;10.74
19102;BMP280;9683;49.028;12.064;2023-11-21T01:29:17;96669.88;;;10.73
19102;BMP280;9683;49.028;12.064;2023-11-21T01:31:45;96672.75;;;10.71
19102;BMP280;9683;49.028;12.064;2023-11-21T01:34:11;96635.59;;;10.48
19102;BMP280;9683;49.028;12.064;2023-11-21T01:36:37;96659.03;;;10.63
19102;BMP280;9683;49.028;12.064;2023-11-21T01:39:04;96660.97;;;10.67
19102;BMP280;9683;49.028;12.064;2023-11-21T01:41:33;96667.81;;;10.63
19102;BMP280;9683;49.028;12.064;2023-11-21T01:44:00;96659.50;;;10.60
19102;BMP280;9683;49.028;12.064;2023-11-21T01:46:27;96653.28;;;10.54
19102;BMP280;9683;49.028;12.064;2023-11-21T01:48:55;96655.44;;;10.57
19102;BMP280;9683;49.028;12.064;2023-11-21T01:51:22;96655.03;;;10.48
19102;BMP280;9683;49.028;12.064;2023-11-21T01:53:49;96663.09;;;10.53
19102;BMP280;9683;49.028;12.064;2023-11-21T01:56:16;96662.06;;;10.54
19102;BMP280;9683;49.028;12.064;2023-11-21T01:58:43;96659.97;;;10.56
19102;BMP280;9683;49.028;12.064;2023-11-21T02:01:12;96663.91;;;10.54
19102;BMP280;9683;49.028;12.064;2023-11-21T02:03:39;96670.28;;;10.53
19102;BMP280;9683;49.028;12.064;2023-11-21T02:06:07;96668.19;;;10.55
19102;BMP280;9683;49.028;12.064;2023-11-21T02:08:34;96663.59;;;10.50
19102;BMP280;9683;49.028;12.064;2023-11-21T02:11:03;96676.66;;;10.52
19102;BMP280;9683;49.028;12.064;2023-11-21T02:13:29;96659.09;;;10.51
19102;BMP280;9683;49.028;12.064;2023-11-21T02:15:56;96666.47;;;10.49
19102;BMP280;9683;49.028;12.064;2023-11-21T02:18:23;96666.72;;;10.47
19102;BMP280;9683;49.028;12.064;2023-11-21T02:20:49;96629.34;;;10.26
19102;BMP280;9683;49.028;12.064;2023-11-21T02:23:17;96655.50;;;10.45
19102;BMP280;9683;49.028;12.064;2023-11-21T02:25:44;96655.06;;;10.37
19102;BMP280;9683;49.028;12.064;2023-11-21T02:28:11;96658.31;;;10.39
19102;BMP280;9683;49.028;12.064;2023-11-21T02:30:42;96651.94;;;10.40
19102;BMP280;9683;49.028;12.064;2023-11-21T02:33:08;96655.66;;;10.39
19102;BMP280;9683;49.028;12.064;2023-11-21T02:35:35;96653.22;;;10.37
19102;BMP280;9683;49.028;12.064;2023-11-21T02:38:03;96654.50;;;10.35
19102;BMP280;9683;49.028;12.064;2023-11-21T02:40:31;96645.47;;;10.36
19102;BMP280;9683;49.028;12.064;2023-11-21T02:42:57;96654.25;;;10.36
19102;BMP280;9683;49.028;12.064;2023-11-21T02:45:24;96644.69;;;10.35
19102;BMP280;9683;49.028;12.064;2023-11-21T02:47:51;96640.97;;;10.36
19102;BMP280;9683;49.028;12.064;2023-11-21T02:50:18;96636.72;;;10.35
19102;BMP280;9683;49.028;12.064;2023-11-21T02:52:45;96637.28;;;10.37
19102;BMP280;9683;49.028;12.064;2023-11-21T02:55:12;96638.31;;;10.36
19102;BMP280;9683;49.028;12.064;2023-11-21T02:57:39;96629.28;;;10.37
19102;BMP280;9683;49.028;12.064;2023-11-21T03:00:07;96631.41;;;10.35
19102;BMP280;9683;49.028;12.064;2023-11-21T03:02:35;96632.19;;;10.36
19102;BMP280;9683;49.028;12.064;2023-11-21T03:05:04;96631.13;;;10.37
19102;BMP280;9683;49.028;12.064;2023-11-21T03:07:31;96632.44;;;10.34
19102;BMP280;9683;49.028;12.064;2023-11-21T03:09:57;96630.34;;;10.36
19102;BMP280;9683;49.028;12.064;2023-11-21T03:12:24;96630.09;;;10.38
19102;BMP280;9683;49.028;12.064;2023-11-21T03:14:52;96630.22;;;10.43
19102;BMP280;9683;49.028;12.064;2023-11-21T03:17:19;96615.84;;;10.44
19102;BMP280;9683;49.028;12.064;2023-11-21T03:19:46;96619.63;;;10.48
19102;BMP280;9683;49.028;12.064;2023-11-21T03:22:13;96621.25;;;10.49
19102;BMP280;9683;49.028;12.064;2023-11-21T03:24:39;96627.41;;;10.49
19102;BMP280;9683;49.028;12.064;2023-11-21T03:27:05;96617.56;;;10.50
19102;BMP280;9683;49.028;12.064;2023-11-21T03:29:33;96624.25;;;10.52
19102;BMP280;9683;49.028;12.064;2023-11-21T03:32:01;96618.47;;;10.55
19102;BMP280;9683;49.028;12.064;2023-11-21T03:34:28;96627.50;;;10.54
19102;BMP280;9683;49.028;12.064;2023-11-21T03:36:54;96619.50;;;10.54
19102;BMP280;9683;49.028;12.064;2023-11-21T03:39:21;96606.03;;;10.44
19102;BMP280;9683;49.028;12.064;2023-11-21T03:41:48;96606.34;;;10.48
19102;BMP280;9683;49.028;12.064;2023-11-21T03:44:14;96623.22;;;10.53
19102;BMP280;9683;49.028;12.064;2023-11-21T03:46:43;96621.38;;;10.54
19102;BMP280;9683;49.028;12.064;2023-11-21T03:49:10;96620.06;;;10.56
19102;BMP280;9683;49.028;12.064;2023-11-21T03:51:37;96588.06;;;10.35
19102;BMP280;9683;49.028;12.064;2023-11-21T03:54:04;96620.31;;;10.55
19102;BMP280;9683;49.028;12.064;2023-11-21T03:56:30;96624.25;;;10.52
19102;BMP280;9683;49.028;12.064;2023-11-21T03:58:57;96614.25;;;10.43
19102;BMP280;9683;49.028;12.064;2023-11-21T04:01:24;96630.06;;;10.49
19102;BMP280;9683;49.028;12.064;2023-11-21T04:03:51;96620.59;;;10.42
19102;BMP280;9683;49.028;12.064;2023-11-21T04:06:19;96631.91;;;10.49
19102;BMP280;9683;49.028;12.064;2023-11-21T04:08:45;96634.00;;;10.47
19102;BMP280;9683;49.028;12.064;2023-11-21T04:11:12;96640.91;;;10.48
19102;BMP280;9683;49.028;12.064;2023-11-21T04:13:39;96641.72;;;10.48
19102;BMP280;9683;49.028;12.064;2023-11-21T04:16:06;96638.75;;;10.45
19102;BMP280;9683;49.028;12.064;2023-11-21T04:18:33;96640.91;;;10.48
19102;BMP280;9683;49.028;12.064;2023-11-21T04:21:00;96643.56;;;10.48
19102;BMP280;9683;49.028;12.064;2023-11-21T04:23:29;96647.84;;;10.49
19102;BMP280;9683;49.028;12.064;2023-11-21T04:25:56;96647.03;;;10.48
19102;BMP280;9683;49.028;12.064;2023-11-21T04:28:23;96647.84;;;10.49
19102;BMP280;9683;49.028;12.064;2023-11-21T04:30:50;96645.44;;;10.47
19102;BMP280;9683;49.028;12.064;2023-11-21T04:33:17;96647.53;;;10.45
19102;BMP280;9683;49.028;12.064;2023-11-21T04:35:43;96657.94;;;10.47
19102;BMP280;9683;49.028;12.064;2023-11-21T04:38:10;96650.78;;;10.47
19102;BMP280;9683;49.028;12.064;2023-11-21T04:40:37;96652.72;;;10.52
19102;BMP280;9683;49.028;12.064;2023-11-21T04:43:04;96652.72;;;10.52
19102;BMP280;9683;49.028;12.064;2023-11-21T04:45:31;96653.06;;;10.55
19102;BMP280;9683;49.028;12.064;2023-11-21T04:47:57;96649.09;;;10.58
19102;BMP280;9683;49.028;12.064;2023-11-21T04:50:24;96651.53;;;10.60
19102;BMP280;9683;49.028;12.064;2023-11-21T04:52:52;96655.22;;;10.58
19102;BMP280;9683;49.028;12.064;2023-11-21T04:55:18;96657.06;;;10.58
19102;BMP280;9683;49.028;12.064;2023-11-21T04:57:46;96651.03;;;10.63
19102;BMP280;9683;49.028;12.064;2023-11-21T05:00:13;96644.09;;;10.62
19102;BMP280;9683;49.028;12.064;2023-11-21T05:02:41;96642.03;;;10.64
19102;BMP280;9683;49.028;12.064;2023-11-21T05:05:09;96641.00;;;10.65
19102;BMP280;9683;49.028;12.064;2023-11-21T05:07:36;96637.25;;;10.66
19102;BMP280;9683;49.028;12.064;2023-11-21T05:10:04;96636.44;;;10.65
19102;BMP280;9683;49.028;12.064;2023-11-21T05:12:33;96635.31;;;10.61
19102;BMP280;9683;49.028;12.064;2023-11-21T05:15:04;96636.94;;;10.62
19102;BMP280;9683;49.028;12.064;2023-11-21T05:17:35;96643.22;;;10.56
19102;BMP280;9683;49.028;12.064;2023-11-21T05:20:01;96636.84;;;10.57
19102;BMP280;9683;49.028;12.064;2023-11-21T05:22:29;96635.25;;;10.56
19102;BMP280;9683;49.028;12.064;2023-11-21T05:24:55;96634.16;;;10.57
19102;BMP280;9683;49.028;12.064;2023-11-21T05:27:22;96643.22;;;10.56
19102;BMP280;9683;49.028;12.064;2023-11-21T05:29:48;96640.78;;;10.54
19102;BMP280;9683;49.028;12.064;2023-11-21T05:32:16;96645.13;;;10.61
19102;BMP280;9683;49.028;12.064;2023-11-21T05:34:43;96650.22;;;10.62
19102;BMP280;9683;49.028;12.064;2023-11-21T05:37:10;96650.22;;;10.62
19102;BMP280;9683;49.028;12.064;2023-11-21T05:39:36;96656.59;;;10.61
19102;BMP280;9683;49.028;12.064;2023-11-21T05:42:03;96655.22;;;10.58
19102;BMP280;9683;49.028;12.064;2023-11-21T05:44:30;96627.22;;;10.39
19102;BMP280;9683;49.028;12.064;2023-11-21T05:46:56;96657.88;;;10.58
19102;BMP280;9683;49.028;12.064;2023-11-21T05:49:25;96658.38;;;10.55
19102;BMP280;9683;49.028;12.064;2023-11-21T05:51:52;96661.34;;;10.59
19102;BMP280;9683;49.028;12.064;2023-11-21T05:54:20;96667.72;;;10.58
19102;BMP280;9683;49.028;12.064;2023-11-21T05:56:46;96666.34;;;10.55
19102;BMP280;9683;49.028;12.064;2023-11-21T05:59:13;96669.81;;;10.56
19102;BMP280;9683;49.028;12.064;2023-11-21T06:01:40;96673.25;;;10.56
19102;BMP280;9683;49.028;12.064;2023-11-21T06:04:06;96672.47;;;10.56
19102;BMP280;9683;49.028;12.064;2023-11-21T06:06:34;96671.19;;;10.58
19102;BMP280;9683;49.028;12.064;2023-11-21T06:09:01;96667.38;;;10.54
19102;BMP280;9683;49.028;12.064;2023-11-21T06:11:28;96677.22;;;10.54
19102;BMP280;9683;49.028;12.064;2023-11-21T06:13:54;96671.34;;;10.52
19102;BMP280;9683;49.028;12.064;2023-11-21T06:16:21;96679.88;;;10.54
19102;BMP280;9683;49.028;12.064;2023-11-21T06:18:47;96678.03;;;10.54
19102;BMP280;9683;49.028;12.064;2023-11-21T06:21:14;96679.88;;;10.54
19102;BMP280;9683;49.028;12.064;2023-11-21T06:23:43;96684.97;;;10.55
19102;BMP280;9683;49.028;12.064;2023-11-21T06:26:09;96685.69;;;10.51
19102;BMP280;9683;49.028;12.064;2023-11-21T06:28:36;96686.72;;;10.50
19102;BMP280;9683;49.028;12.064;2023-11-21T06:31:03;96696.53;;;10.49
19102;BMP280;9683;49.028;12.064;2023-11-21T06:33:30;96693.06;;;10.49
19102;BMP280;9683;49.028;12.064;2023-11-21T06:35:57;96692.25;;;10.48
19102;BMP280;9683;49.028;12.064;2023-11-21T06:38:23;96693.31;;;10.47
19102;BMP280;9683;49.028;12.064;2023-11-21T06:40:51;96661.34;;;10.31
19102;BMP280;9683;49.028;12.064;2023-11-21T06:43:18;96700.22;;;10.48
19102;BMP280;9683;49.028;12.064;2023-11-21T06:45:44;96701.03;;;10.49
19102;BMP280;9683;49.028;12.064;2023-11-21T06:48:11;96700.22;;;10.48
19102;BMP280;9683;49.028;12.064;2023-11-21T06:50:37;96698.88;;;10.46
19102;BMP280;9683;49.028;12.064;2023-11-21T06:53:04;96698.53;;;10.42
19102;BMP280;9683;49.028;12.064;2023-11-21T06:55:32;96714.00;;;10.45
19102;BMP280;9683;49.028;12.064;2023-11-21T06:58:00;96716.44;;;10.47
19102;BMP280;9683;49.028;12.064;2023-11-21T07:00:27;96714.00;;;10.45
19102;BMP280;9683;49.028;12.064;2023-11-21T07:02:54;96712.97;;;10.46
19102;BMP280;9683;49.028;12.064;2023-11-21T07:05:21;96720.47;;;10.49
19102;BMP280;9683;49.028;12.064;2023-11-21T07:07:47;96721.63;;;10.53
19102;BMP280;9683;49.028;12.064;2023-11-21T07:10:14;96723.00;;;10.56
19102;BMP280;9683;49.028;12.064;2023-11-21T07:12:41;96720.09;;;10.57
19102;BMP280;9683;49.028;12.064;2023-11-21T07:15:09;96724.72;;;10.62
19102;BMP280;9683;49.028;12.064;2023-11-21T07:17:36;96706.25;;;10.55
19102;BMP280;9683;49.028;12.064;2023-11-21T07:20:04;96723.78;;;10.68
19102;BMP280;9683;49.028;12.064;2023-11-21T07:22:31;96729.09;;;10.68
19102;BMP280;9683;49.028;12.064;2023-11-21T07:24:58;96725.16;;;10.71
19102;BMP280;9683;49.028;12.064;2023-11-21T07:27:24;96718.22;;;10.70
19102;BMP280;9683;49.028;12.064;2023-11-21T07:29:51;96726.50;;;10.73
19102;BMP280;9683;49.028;12.064;2023-11-21T07:32:19;96726.06;;;10.76
19102;BMP280;9683;49.028;12.064;2023-11-21T07:34:46;96732.44;;;10.75
19102;BMP280;9683;49.028;12.064;2023-11-21T07:37:12;96732.66;;;10.74
19102;BMP280;9683;49.028;12.064;2023-11-21T07:39:39;96731.84;;;10.73
19102;BMP280;9683;49.028;12.064;2023-11-21T07:42:07;96731.84;;;10.73
19102;BMP280;9683;49.028;12.064;2023-11-21T07:44:34;96735.09;;;10.75
19102;BMP280;9683;49.028;12.064;2023-11-21T07:47:00;96741.53;;;10.79
19102;BMP280;9683;49.028;12.064;2023-11-21T07:49:28;96744.31;;;10.84
19102;BMP280;9683;49.028;12.064;2023-11-21T07:51:55;96752.03;;;10.86
19102;BMP280;9683;49.028;12.064;2023-11-21T07:54:21;96723.41;;;10.76
19102;BMP280;9683;49.028;12.064;2023-11-21T07:56:48;96755.72;;;10.96
19102;BMP280;9683;49.028;12.064;2023-11-21T07:59:14;96746.09;;;10.95
19102;BMP280;9683;49.028;12.064;2023-11-21T08:01:42;96754.53;;;11.04
19102;BMP280;9683;49.028;12.064;2023-11-21T08:04:10;96758.31;;;11.08
19102;BMP280;9683;49.028;12.064;2023-11-21T08:06:39;96759.22;;;11.14
19102;BMP280;9683;49.028;12.064;2023-11-21T08:09:06;96755.97;;;11.12
19102;BMP280;9683;49.028;12.064;2023-11-21T08:11:33;96756.09;;;11.17
19102;BMP280;9683;49.028;12.064;2023-11-21T08:14:00;96763.84;;;11.18
19102;BMP280;9683;49.028;12.064;2023-11-21T08:16:27;96756.91;;;11.17
19102;BMP280;9683;49.028;12.064;2023-11-21T08:18:53;96764.16;;;11.22
19102;BMP280;9683;49.028;12.064;2023-11-21T08:21:20;96760.91;;;11.20
19102;BMP280;9683;49.028;12.064;2023-11-21T08:23:50;96771.66;;;11.25
19102;BMP280;9683;49.028;12.064;2023-11-21T08:26:19;96771.44;;;11.26
19102;BMP280;9683;49.028;12.064;2023-11-21T08:28:46;96773.41;;;11.31
19102;BMP280;9683;49.028;12.064;2023-11-21T08:31:13;96762.97;;;11.29
19102;BMP280;9683;49.028;12.064;2023-11-21T08:33:40;96778.09;;;11.40
19102;BMP280;9683;49.028;12.064;2023-11-21T08:36:07;96774.13;;;11.43
19102;BMP280;9683;49.028;12.064;2023-11-21T08:38:35;96779.22;;;11.44
19102;BMP280;9683;49.028;12.064;2023-11-21T08:41:05;96773.41;;;11.47
19102;BMP280;9683;49.028;12.064;2023-11-21T08:43:33;96782.78;;;11.50
19102;BMP280;9683;49.028;12.064;2023-11-21T08:46:00;96779.28;;;11.49
19102;BMP280;9683;49.028;12.064;2023-11-21T08:48:26;96782.31;;;11.53
19102;BMP280;9683;49.028;12.064;2023-11-21T08:50:55;96776.63;;;11.49
19102;BMP280;9683;49.028;12.064;2023-11-21T08:53:21;96782.63;;;11.57
19102;BMP280;9683;49.028;12.064;2023-11-21T08:55:48;96795.56;;;11.65
19102;BMP280;9683;49.028;12.064;2023-11-21T08:58:16;96789.25;;;11.71
19102;BMP280;9683;49.028;12.064;2023-11-21T09:00:43;96792.41;;;11.68
19102;BMP280;9683;49.028;12.064;2023-11-21T09:03:09;96781.19;;;11.66
19102;BMP280;9683;49.028;12.064;2023-11-21T09:05:37;96793.75;;;11.70
19102;BMP280;9683;49.028;12.064;2023-11-21T09:08:05;96803.28;;;11.66
19102;BMP280;9683;49.028;12.064;2023-11-21T09:10:32;96801.69;;;11.65
19102;BMP280;9683;49.028;12.064;2023-11-21T09:13:01;96800.88;;;11.65
19102;BMP280;9683;49.028;12.064;2023-11-21T09:15:29;96803.78;;;11.63
19102;BMP280;9683;49.028;12.064;2023-11-21T09:17:55;96799.16;;;11.59
19102;BMP280;9683;49.028;12.064;2023-11-21T09:20:22;96801.34;;;11.62
19102;BMP280;9683;49.028;12.064;2023-11-21T09:22:49;96803.78;;;11.63
19102;BMP280;9683;49.028;12.064;2023-11-21T09:25:15;96814.44;;;11.63
19102;BMP280;9683;49.028;12.064;2023-11-21T09:27:42;96809.69;;;11.65
19102;BMP280;9683;49.028;12.064;2023-11-21T09:30:09;96809.69;;;11.65
19102;BMP280;9683;49.028;12.064;2023-11-21T09:32:37;96817.56;;;11.72
19102;BMP280;9683;49.028;12.064;2023-11-21T09:35:06;96812.69;;;11.69
19102;BMP280;9683;49.028;12.064;2023-11-21T09:37:33;96809.13;;;11.63
19102;BMP280;9683;49.028;12.064;2023-11-21T09:40:01;96808.63;;;11.66
19102;BMP280;9683;49.028;12.064;2023-11-21T09:42:32;96811.38;;;11.71
19102;BMP280;9683;49.028;12.064;2023-11-21T09:45:05;96812.69;;;11.69
19102;BMP280;9683;49.028;12.064;2023-11-21T09:47:34;96808.41;;;11.68
19102;BMP280;9683;49.028;12.064;2023-11-21T09:50:04;96809.06;;;11.75
19102;BMP280;9683;49.028;12.064;2023-11-21T09:52:38;96814.97;;;11.77
19102;BMP280;9683;49.028;12.064;2023-11-21T09:55:08;96815.78;;;11.77
19102;BMP280;9683;49.028;12.064;2023-11-21T09:57:38;96805.69;;;11.79
19102;BMP280;9683;49.028;12.064;2023-11-21T10:00:06;96809.00;;;11.86
19102;BMP280;9683;49.028;12.064;2023-11-21T10:02:37;96803.69;;;11.86
19102;BMP280;9683;49.028;12.064;2023-11-21T10:05:06;96804.47;;;11.87
19102;BMP280;9683;49.028;12.064;2023-11-21T10:07:35;96803.34;;;11.83
19102;BMP280;9683;49.028;12.064;2023-11-21T10:10:02;96806.66;;;11.90
19102;BMP280;9683;49.028;12.064;2023-11-21T10:12:29;96811.00;;;11.96
19102;BMP280;9683;49.028;12.064;2023-11-21T10:14:57;96808.44;;;12.01
19102;BMP280;9683;49.028;12.064;2023-11-21T10:17:25;96809.25;;;12.02
19102;BMP280;9683;49.028;12.064;2023-11-21T10:19:56;96804.41;;;11.99
19102;BMP280;9683;49.028;12.064;2023-11-21T10:22:25;96804.41;;;11.99
19102;BMP280;9683;49.028;12.064;2023-11-21T10:24:52;96811.34;;;12.00
19102;BMP280;9683;49.028;12.064;2023-11-21T10:27:19;96807.72;;;12.06
19102;BMP280;9683;49.028;12.064;2023-11-21T10:29:45;96818.19;;;12.12
19102;BMP280;9683;49.028;12.064;2023-11-21T10:32:12;96819.09;;;12.18
19102;BMP280;9683;49.028;12.064;2023-11-21T10:34:38;96817.06;;;12.25
19102;BMP280;9683;49.028;12.064;2023-11-21T10:37:11;96811.06;;;12.34
19102;BMP280;9683;49.028;12.064;2023-11-21T10:39:39;96817.78;;;12.37
19102;BMP280;9683;49.028;12.064;2023-11-21T10:42:08;96814.34;;;12.41
19102;BMP280;9683;49.028;12.064;2023-11-21T10:44:35;96813.81;;;12.39
19102;BMP280;9683;49.028;12.064;2023-11-21T10:47:02;96809.28;;;12.40
19102;BMP280;9683;49.028;12.064;2023-11-21T10:49:28;96809.38;;;12.45
19102;BMP280;9683;49.028;12.064;2023-11-21T10:51:55;96815.09;;;12.54
19102;BMP280;9683;49.028;12.064;2023-11-21T10:54:23;96818.88;;;12.58
19102;BMP280;9683;49.028;12.064;2023-11-21T10:56:53;96804.97;;;12.56
19102;BMP280;9683;49.028;12.064;2023-11-21T10:59:22;96822.19;;;12.65
19102;BMP280;9683;49.028;12.064;2023-11-21T11:01:51;96816.59;;;12.66
19102;BMP280;9683;49.028;12.064;2023-11-21T11:04:19;96815.53;;;12.67
19102;BMP280;9683;49.028;12.064;2023-11-21T11:06:51;96821.44;;;12.69
19102;BMP280;9683;49.028;12.064;2023-11-21T11:09:18;96807.13;;;12.59
19102;BMP280;9683;49.028;12.064;2023-11-21T11:11:45;96818.69;;;12.64
19102;BMP280;9683;49.028;12.064;2023-11-21T11:14:13;96809.06;;;12.63
19102;BMP280;9683;49.028;12.064;2023-11-21T11:16:41;96799.31;;;12.52
19102;BMP280;9683;49.028;12.064;2023-11-21T11:19:08;96813.28;;;12.59
19102;BMP280;9683;49.028;12.064;2023-11-21T11:21:45;96815.72;;;12.61
19102;BMP280;9683;49.028;12.064;2023-11-21T11:24:25;96812.22;;;12.60
19102;BMP280;9683;49.028;12.064;2023-11-21T11:26:57;96808.75;;;12.60
19102;BMP280;9683;49.028;12.064;2023-11-21T11:29:33;96806.66;;;12.62
19102;BMP280;9683;49.028;12.064;2023-11-21T11:32:10;96807.78;;;12.66
19102;BMP280;9683;49.028;12.064;2023-11-21T11:34:44;96801.94;;;12.69
19102;BMP280;9683;49.028;12.064;2023-11-21T11:37:12;96801.94;;;12.69
19102;BMP280;9683;49.028;12.064;2023-11-21T11:39:41;96805.19;;;12.71
19102;BMP280;9683;49.028;12.064;2023-11-21T11:42:11;96805.50;;;12.74
19102;BMP280;9683;49.028;12.064;2023-11-21T11:44:52;96801.75;;;12.75
19102;BMP280;9683;49.028;12.064;2023-11-21T11:47:22;96808.41;;;12.73
19102;BMP280;9683;49.028;12.064;2023-11-21T11:50:04;96804.69;;;12.74
19102;BMP280;9683;49.028;12.064;2023-11-21T11:52:40;96818.25;;;12.72
19102;BMP280;9683;49.028;12.064;2023-11-21T11:55:10;96800.81;;;12.65
19102;BMP280;9683;49.028;12.064;2023-11-21T11:57:37;96817.94;;;12.69
19102;BMP280;9683;49.028;12.064;2023-11-21T12:00:13;96808.09;;;12.69
19102;BMP280;9683;49.028;12.064;2023-11-21T12:02:45;96816.16;;;12.74
19102;BMP280;9683;49.028;12.064;2023-11-21T12:05:13;96818.84;;;12.74
19102;BMP280;9683;49.028;12.064;2023-11-21T12:07:44;96816.97;;;12.75
19102;BMP280;9683;49.028;12.064;2023-11-21T12:10:13;96809.19;;;12.73
19102;BMP280;9683;49.028;12.064;2023-11-21T12:12:45;96807.59;;;12.72
19102;BMP280;9683;49.028;12.064;2023-11-21T12:15:13;96816.16;;;12.74
19102;BMP280;9683;49.028;12.064;2023-11-21T12:17:40;96803.28;;;12.71
19102;BMP280;9683;49.028;12.064;2023-11-21T12:20:08;96813.06;;;12.82
19102;BMP280;9683;49.028;12.064;2023-11-21T12:22:42;96813.59;;;12.84
19102;BMP280;9683;49.028;12.064;2023-11-21T12:25:09;96814.19;;;12.86
19102;BMP280;9683;49.028;12.064;2023-11-21T12:27:38;96812.56;;;12.85
19102;BMP280;9683;49.028;12.064;2023-11-21T12:30:05;96815.72;;;12.82
19102;BMP280;9683;49.028;12.064;2023-11-21T12:32:39;96805.78;;;12.78
19102;BMP280;9683;49.028;12.064;2023-11-21T12:35:08;96813.22;;;12.76
19102;BMP280;9683;49.028;12.064;2023-11-21T12:37:35;96813.50;;;12.74
19102;BMP280;9683;49.028;12.064;2023-11-21T12:40:03;96810.75;;;12.69
19102;BMP280;9683;49.028;12.064;2023-11-21T12:42:31;96820.63;;;12.69
19102;BMP280;9683;49.028;12.064;2023-11-21T12:45:09;96795.53;;;12.48
19102;BMP280;9683;49.028;12.064;2023-11-21T12:47:43;96823.88;;;12.54
19102;BMP280;9683;49.028;12.064;2023-11-21T12:50:10;96815.75;;;12.44
19102;BMP280;9683;49.028;12.064;2023-11-21T12:52:41;96831.53;;;12.46
19102;BMP280;9683;49.028;12.064;2023-11-21T12:55:09;96827.47;;;12.43
19102;BMP280;9683;49.028;12.064;2023-11-21T12:57:41;96828.28;;;12.44
19102;BMP280;9683;49.028;12.064;2023-11-21T13:00:09;96831.44;;;12.40
19102;BMP280;9683;49.028;12.064;2023-11-21T13:02:42;96834.34;;;12.39
19102;BMP280;9683;49.028;12.064;2023-11-21T13:05:09;96830.47;;;12.30
19102;BMP280;9683;49.028;12.064;2023-11-21T13:07:46;96839.28;;;12.30
19102;BMP280;9683;49.028;12.064;2023-11-21T13:10:14;96834.19;;;12.29
19102;BMP280;9683;49.028;12.064;2023-11-21T13:12:43;96836.47;;;12.37
19102;BMP280;9683;49.028;12.064;2023-11-21T13:15:13;96843.97;;;12.40
19102;BMP280;9683;49.028;12.064;2023-11-21T13:17:45;96833.53;;;12.38
19102;BMP280;9683;49.028;12.064;2023-11-21T13:20:11;96841.81;;;12.37
19102;BMP280;9683;49.028;12.064;2023-11-21T13:22:46;96849.00;;;12.36
19102;BMP280;9683;49.028;12.064;2023-11-21T13:25:14;96840.34;;;12.29
19102;BMP280;9683;49.028;12.064;2023-11-21T13:27:43;96846.47;;;12.30
19102;BMP280;9683;49.028;12.064;2023-11-21T13:30:12;96855.53;;;12.29
19102;BMP280;9683;49.028;12.064;2023-11-21T13:32:40;96855.69;;;12.22
19102;BMP280;9683;49.028;12.064;2023-11-21T13:35:08;96860.72;;;12.19
19102;BMP280;9683;49.028;12.064;2023-11-21T13:37:40;96864.44;;;12.18
19102;BMP280;9683;49.028;12.064;2023-11-21T13:40:11;96862.25;;;12.15
19102;BMP280;9683;49.028;12.064;2023-11-21T13:42:40;96862.50;;;12.13
19102;BMP280;9683;49.028;12.064;2023-11-21T13:45:07;96866.78;;;12.14
19102;BMP280;9683;49.028;12.064;2023-11-21T13:47:34;96874.28;;;12.17
19102;BMP280;9683;49.028;12.064;2023-11-21T13:50:04;96877.84;;;12.23
19102;BMP280;9683;49.028;12.064;2023-11-21T13:52:35;96873.41;;;12.28
19102;BMP280;9683;49.028;12.064;2023-11-21T13:55:01;96878.97;;;12.27
19102;BMP280;9683;49.028;12.064;2023-11-21T13:57:31;96873.66;;;12.27
19102;BMP280;9683;49.028;12.064;2023-11-21T13:59:58;96880.44;;;12.34
19102;BMP280;9683;49.028;12.064;2023-11-21T14:02:26;96876.81;;;12.40
19102;BMP280;9683;49.028;12.064;2023-11-21T14:04:59;96883.50;;;12.43
19102;BMP280;9683;49.028;12.064;2023-11-21T14:07:35;96880.03;;;12.43
19102;BMP280;9683;49.028;12.064;2023-11-21T14:10:02;96874.44;;;12.44
19102;BMP280;9683;49.028;12.064;2023-11-21T14:12:30;96879.78;;;12.44